Seavoyager — 9HUM8 — position and weather

sailwx.info

Track history (hours):
 
Tides and Currents Weather Stations Pressure Air Temp Water Temp Dewpoint Dewpoint Depression Visibility Wind Speed Wind Dir Waves Ship Positions

Seavoyager

Last reported at 2017-Oct-22 21:54 UTC. Time now 2017-Nov-21 04:48 UTC.
Position N 36°49' W 029°50'.
Warning: this ship's position is 29 days out of date.

Length 274 m; draft 11.9 m.

Type: Ship (hazmat cat A). MMSI: 256439000.

Date/timePositionNaut miles runAvg speedWind from/ knotsBaromVisibWave heightAir tempDewpointWater temp
2017-Oct-22 21:54N 36°49' W 029°50'513.3
2017-Oct-22 21:30N 36°48' W 029°43'1212.9
2017-Oct-22 20:35N 36°48' W 029°28'512.9
2017-Oct-22 20:12N 36°47' W 029°22'213.0
2017-Oct-22 20:00N 36°47' W 029°19'712.8
2017-Oct-22 19:29N 36°47' W 029°11'613.0
2017-Oct-22 19:01N 36°46' W 029°03'712.9
2017-Oct-22 18:30N 36°46' W 028°55'1012.9
2017-Oct-22 17:43N 36°46' W 028°42'712.9
2017-Oct-22 17:10N 36°46' W 028°33'312.8
2017-Oct-22 16:57N 36°46' W 028°30'613.1
2017-Oct-22 16:28N 36°46' W 028°22'712.7
2017-Oct-22 15:57N 36°45' W 028°13'612.6
2017-Oct-22 15:30N 36°45' W 028°07'612.2
2017-Oct-22 15:00N 36°45' W 027°59'611.8
2017-Oct-22 14:30N 36°44' W 027°52'812.2
2017-Oct-22 13:50N 36°44' W 027°41'2112.5
2017-Oct-22 12:09N 36°43' W 027°15'212.7
2017-Oct-22 12:00N 36°43' W 027°13'612.4
2017-Oct-22 11:31N 36°43' W 027°05'2712.8
2017-Oct-22 09:25N 36°42' W 026°32'613.8
2017-Oct-22 09:00N 36°41' W 026°25'714.3
2017-Oct-22 08:30N 36°41' W 026°16'714.0
2017-Oct-22 08:01N 36°41' W 026°07'714.1
2017-Oct-22 07:31N 36°40' W 025°58'714.2
2017-Oct-22 07:01N 36°40' W 025°50'714.4
2017-Oct-22 06:30N 36°40' W 025°41'714.5
2017-Oct-22 06:01N 36°39' W 025°32'714.6
2017-Oct-22 05:30N 36°39' W 025°23'714.6
2017-Oct-22 05:00N 36°39' W 025°13'714.7
2017-Oct-22 04:30N 36°38' W 025°04'714.3
2017-Oct-22 04:01N 36°38' W 024°55'714.3
2017-Oct-22 03:30N 36°38' W 024°47'714.4
2017-Oct-22 03:01N 36°38' W 024°38'714.3
2017-Oct-22 02:30N 36°37' W 024°29'714.3
2017-Oct-22 02:00N 36°37' W 024°20'714.2
2017-Oct-22 01:30N 36°36' W 024°11'714.2
2017-Oct-22 01:00N 36°36' W 024°02'713.9
2017-Oct-22 00:30N 36°36' W 023°53'713.6
2017-Oct-22 00:00N 36°35' W 023°45'3613.1
2017-Oct-21 21:16N 36°34' W 023°01'312.6
2017-Oct-21 21:00N 36°34' W 022°56'712.7
2017-Oct-21 20:29N 36°33' W 022°48'712.8
2017-Oct-21 19:58N 36°33' W 022°40'712.6
2017-Oct-21 19:23N 36°32' W 022°31'1112.7
2017-Oct-21 18:30N 36°32' W 022°17'1012.5
2017-Oct-21 17:43N 36°31' W 022°05'412.4
2017-Oct-21 17:22N 36°31' W 021°59'  
2017-Oct-19 02:01N 35°57' W 005°46'810.9
2017-Oct-19 01:16N 35°57' W 005°36'311.0
2017-Oct-19 01:00N 35°58' W 005°32'510.7
2017-Oct-19 00:30N 36°00' W 005°26'510.3
2017-Oct-19 00:00N 36°02' W 005°20'510.1
2017-Oct-18 23:30N 36°03' W 005°14'611.4
2017-Oct-18 23:00N 36°04' W 005°07'21212.4
2017-Oct-18 05:56N 36°41' W 000°48'1413.6
2017-Oct-18 04:52N 36°44' W 000°31'513.4
2017-Oct-18 04:30N 36°45' W 000°25'1113.4
2017-Oct-18 03:43N 36°48' W 000°12'313.4
2017-Oct-18 03:30N 36°48' W 000°08'713.3
2017-Oct-18 02:59N 36°50' E 000°00'713.4
2017-Oct-18 02:30N 36°51' E 000°08'813.5
2017-Oct-18 01:56N 36°53' E 000°17'613.3
2017-Oct-18 01:30N 36°55' E 000°24'713.4
2017-Oct-18 01:00N 36°56' E 000°33'713.6
2017-Oct-18 00:30N 36°57' E 000°41'713.5
2017-Oct-17 23:59N 36°59' E 000°50'613.6
2017-Oct-17 23:30N 36°60' E 000°58'713.5
2017-Oct-17 23:00N 37°01' E 001°06'713.7
2017-Oct-17 22:30N 37°02' E 001°14'1313.5
2017-Oct-17 21:32N 37°05' E 001°30'113.5
2017-Oct-17 21:30N 37°05' E 001°31'713.4
2017-Oct-17 21:00N 37°07' E 001°39'33013.4
2017-Oct-16 20:21N 37°50' E 008°31'513.2
2017-Oct-16 19:58N 37°51' E 008°37'613.3
2017-Oct-16 19:29N 37°51' E 008°45'1013.1
2017-Oct-16 18:42N 37°52' E 008°58'313.1
2017-Oct-16 18:29N 37°53' E 009°02'613.4
2017-Oct-16 18:00N 37°54' E 009°10'714.1
2017-Oct-16 17:29N 37°55' E 009°19'713.8
2017-Oct-16 17:00N 37°55' E 009°28'713.7
2017-Oct-16 16:30N 37°56' E 009°36'612.6
2017-Oct-16 16:00N 37°53' E 009°44'713.5
2017-Oct-16 15:30N 37°49' E 009°50'713.6
2017-Oct-16 15:00N 37°47' E 009°59'1413.4
2017-Oct-16 13:56N 37°43' E 010°16'4513.4
2017-Oct-16 10:35N 37°28' E 011°10'5613.8
2017-Oct-16 06:30N 36°55' E 012°07'714.0
2017-Oct-16 06:00N 36°51' E 012°14'714.0
2017-Oct-16 05:30N 36°46' E 012°20'714.0
2017-Oct-16 05:00N 36°40' E 012°25'814.3
2017-Oct-16 04:25N 36°34' E 012°31'614.2
2017-Oct-16 04:00N 36°29' E 012°35'714.4
2017-Oct-16 03:30N 36°23' E 012°40'714.5
2017-Oct-16 03:00N 36°17' E 012°45'714.7
2017-Oct-16 02:30N 36°11' E 012°50'714.5
2017-Oct-16 02:01N 36°05' E 012°56'814.3
2017-Oct-16 01:28N 35°59' E 013°01'714.3
2017-Oct-16 01:00N 35°53' E 013°06'  
Track history (hours):
 
Tides and Currents Weather Stations Pressure Air Temp Water Temp Dewpoint Dewpoint Depression Visibility Wind Speed Wind Dir Waves Ship Positions

Seavoyager

Last reported at 2017-Oct-22 21:54 UTC. Time now 2017-Nov-21 04:48 UTC.
Position N 36°49' W 029°50'.
Warning: this ship's position is 29 days out of date.

Length 274 m; draft 11.9 m.

Type: Ship (hazmat cat A). MMSI: 256439000.

Date/timePositionNaut miles runAvg speedWind from/ knotsBaromVisibWave heightAir tempDewpointWater temp
2017-Oct-22 21:54N 36°49' W 029°50'513.3
2017-Oct-22 21:30N 36°48' W 029°43'1212.9
2017-Oct-22 20:35N 36°48' W 029°28'512.9
2017-Oct-22 20:12N 36°47' W 029°22'213.0
2017-Oct-22 20:00N 36°47' W 029°19'712.8
2017-Oct-22 19:29N 36°47' W 029°11'613.0
2017-Oct-22 19:01N 36°46' W 029°03'712.9
2017-Oct-22 18:30N 36°46' W 028°55'1012.9
2017-Oct-22 17:43N 36°46' W 028°42'712.9
2017-Oct-22 17:10N 36°46' W 028°33'312.8
2017-Oct-22 16:57N 36°46' W 028°30'613.1
2017-Oct-22 16:28N 36°46' W 028°22'712.7
2017-Oct-22 15:57N 36°45' W 028°13'612.6
2017-Oct-22 15:30N 36°45' W 028°07'612.2
2017-Oct-22 15:00N 36°45' W 027°59'611.8
2017-Oct-22 14:30N 36°44' W 027°52'812.2
2017-Oct-22 13:50N 36°44' W 027°41'2112.5
2017-Oct-22 12:09N 36°43' W 027°15'212.7
2017-Oct-22 12:00N 36°43' W 027°13'612.4
2017-Oct-22 11:31N 36°43' W 027°05'2712.8
2017-Oct-22 09:25N 36°42' W 026°32'613.8
2017-Oct-22 09:00N 36°41' W 026°25'714.3
2017-Oct-22 08:30N 36°41' W 026°16'714.0
2017-Oct-22 08:01N 36°41' W 026°07'714.1
2017-Oct-22 07:31N 36°40' W 025°58'714.2
2017-Oct-22 07:01N 36°40' W 025°50'714.4
2017-Oct-22 06:30N 36°40' W 025°41'714.5
2017-Oct-22 06:01N 36°39' W 025°32'714.6
2017-Oct-22 05:30N 36°39' W 025°23'714.6
2017-Oct-22 05:00N 36°39' W 025°13'714.7
2017-Oct-22 04:30N 36°38' W 025°04'714.3
2017-Oct-22 04:01N 36°38' W 024°55'714.3
2017-Oct-22 03:30N 36°38' W 024°47'714.4
2017-Oct-22 03:01N 36°38' W 024°38'714.3
2017-Oct-22 02:30N 36°37' W 024°29'714.3
2017-Oct-22 02:00N 36°37' W 024°20'714.2
2017-Oct-22 01:30N 36°36' W 024°11'714.2
2017-Oct-22 01:00N 36°36' W 024°02'713.9
2017-Oct-22 00:30N 36°36' W 023°53'713.6
2017-Oct-22 00:00N 36°35' W 023°45'3613.1
2017-Oct-21 21:16N 36°34' W 023°01'312.6
2017-Oct-21 21:00N 36°34' W 022°56'712.7
2017-Oct-21 20:29N 36°33' W 022°48'712.8
2017-Oct-21 19:58N 36°33' W 022°40'712.6
2017-Oct-21 19:23N 36°32' W 022°31'1112.7
2017-Oct-21 18:30N 36°32' W 022°17'1012.5
2017-Oct-21 17:43N 36°31' W 022°05'412.4
2017-Oct-21 17:22N 36°31' W 021°59'  
2017-Oct-19 02:01N 35°57' W 005°46'810.9
2017-Oct-19 01:16N 35°57' W 005°36'311.0
2017-Oct-19 01:00N 35°58' W 005°32'510.7
2017-Oct-19 00:30N 36°00' W 005°26'510.3
2017-Oct-19 00:00N 36°02' W 005°20'510.1
2017-Oct-18 23:30N 36°03' W 005°14'611.4
2017-Oct-18 23:00N 36°04' W 005°07'21212.4
2017-Oct-18 05:56N 36°41' W 000°48'1413.6
2017-Oct-18 04:52N 36°44' W 000°31'513.4
2017-Oct-18 04:30N 36°45' W 000°25'1113.4
2017-Oct-18 03:43N 36°48' W 000°12'313.4
2017-Oct-18 03:30N 36°48' W 000°08'713.3
2017-Oct-18 02:59N 36°50' E 000°00'713.4
2017-Oct-18 02:30N 36°51' E 000°08'813.5
2017-Oct-18 01:56N 36°53' E 000°17'613.3
2017-Oct-18 01:30N 36°55' E 000°24'713.4
2017-Oct-18 01:00N 36°56' E 000°33'713.6
2017-Oct-18 00:30N 36°57' E 000°41'713.5
2017-Oct-17 23:59N 36°59' E 000°50'613.6
2017-Oct-17 23:30N 36°60' E 000°58'713.5
2017-Oct-17 23:00N 37°01' E 001°06'713.7
2017-Oct-17 22:30N 37°02' E 001°14'1313.5
2017-Oct-17 21:32N 37°05' E 001°30'113.5
2017-Oct-17 21:30N 37°05' E 001°31'713.4
2017-Oct-17 21:00N 37°07' E 001°39'33013.4
2017-Oct-16 20:21N 37°50' E 008°31'513.2
2017-Oct-16 19:58N 37°51' E 008°37'613.3
2017-Oct-16 19:29N 37°51' E 008°45'1013.1
2017-Oct-16 18:42N 37°52' E 008°58'313.1
2017-Oct-16 18:29N 37°53' E 009°02'613.4
2017-Oct-16 18:00N 37°54' E 009°10'714.1
2017-Oct-16 17:29N 37°55' E 009°19'713.8
2017-Oct-16 17:00N 37°55' E 009°28'713.7
2017-Oct-16 16:30N 37°56' E 009°36'612.6
2017-Oct-16 16:00N 37°53' E 009°44'713.5
2017-Oct-16 15:30N 37°49' E 009°50'713.6
2017-Oct-16 15:00N 37°47' E 009°59'1413.4
2017-Oct-16 13:56N 37°43' E 010°16'4513.4
2017-Oct-16 10:35N 37°28' E 011°10'5613.8
2017-Oct-16 06:30N 36°55' E 012°07'714.0
2017-Oct-16 06:00N 36°51' E 012°14'714.0
2017-Oct-16 05:30N 36°46' E 012°20'714.0
2017-Oct-16 05:00N 36°40' E 012°25'814.3
2017-Oct-16 04:25N 36°34' E 012°31'614.2
2017-Oct-16 04:00N 36°29' E 012°35'714.4
2017-Oct-16 03:30N 36°23' E 012°40'714.5
2017-Oct-16 03:00N 36°17' E 012°45'714.7
2017-Oct-16 02:30N 36°11' E 012°50'714.5
2017-Oct-16 02:01N 36°05' E 012°56'814.3
2017-Oct-16 01:28N 35°59' E 013°01'714.3
2017-Oct-16 01:00N 35°53' E 013°06'  

Dump ship's entire track history